createdAt,value
2019-01-12T00:01:14.475Z,6.30
2019-01-12T00:06:21.867Z,6.30
2019-01-12T00:11:27.632Z,6.20
2019-01-12T00:16:35.567Z,6.20
2019-01-12T00:21:40.942Z,6.20
2019-01-12T00:26:49.091Z,6.20
2019-01-12T00:31:55.046Z,6.20
2019-01-12T00:37:00.126Z,6.20
2019-01-12T00:42:05.135Z,6.10
2019-01-12T00:47:11.206Z,6.10
2019-01-12T00:52:17.645Z,6.20
2019-01-12T00:57:23.031Z,6.20
2019-01-12T01:02:27.994Z,6.20
2019-01-12T01:07:34.750Z,6.10
2019-01-12T01:12:50.441Z,6.10
2019-01-12T01:17:55.716Z,6.20
2019-01-12T01:23:00.983Z,6.10
2019-01-12T01:28:06.649Z,6.10
2019-01-12T01:33:11.634Z,6.10
2019-01-12T01:38:16.654Z,6.10
2019-01-12T01:43:21.629Z,6.10
2019-01-12T01:48:26.615Z,6.10
2019-01-12T01:53:31.576Z,6.10
2019-01-12T01:58:36.565Z,6.00
2019-01-12T02:03:41.527Z,6.00
2019-01-12T02:08:46.505Z,6.00
2019-01-12T02:13:51.472Z,6.10
2019-01-12T02:18:56.423Z,6.10
2019-01-12T02:24:01.408Z,6.10
2019-01-12T02:29:06.676Z,6.20
2019-01-12T02:34:11.627Z,6.20
2019-01-12T02:39:16.634Z,6.20
2019-01-12T02:44:21.581Z,6.10
2019-01-12T02:49:26.542Z,6.10
2019-01-12T02:54:31.493Z,6.10
2019-01-12T02:59:36.454Z,6.00
2019-01-12T03:04:41.447Z,6.00
2019-01-12T03:09:46.398Z,6.00
2019-01-12T03:14:51.354Z,6.00
2019-01-12T03:19:56.359Z,5.90
2019-01-12T03:25:01.301Z,5.80
2019-01-12T03:30:10.796Z,5.80
2019-01-12T03:35:16.043Z,5.90
2019-01-12T03:40:21.834Z,6.00
2019-01-12T03:45:27.094Z,6.00
2019-01-12T03:50:32.051Z,6.10
2019-01-12T03:55:37.009Z,6.20
2019-01-12T04:00:41.971Z,6.20
2019-01-12T04:05:46.983Z,6.20
2019-01-12T04:10:51.955Z,6.20
2019-01-12T04:15:56.925Z,6.20
2019-01-12T04:21:01.886Z,6.20
2019-01-12T04:26:07.263Z,6.30
2019-01-12T04:31:12.280Z,6.30
2019-01-12T04:36:17.246Z,6.30
2019-01-12T04:41:22.238Z,6.40
2019-01-12T04:46:27.219Z,6.30
2019-01-12T04:51:32.341Z,6.20
2019-01-12T04:56:37.310Z,6.20
2019-01-12T05:01:42.276Z,6.10
2019-01-12T05:06:47.283Z,6.00
2019-01-12T05:11:52.243Z,6.00
2019-01-12T05:16:57.211Z,6.00
2019-01-12T05:22:02.170Z,5.80
2019-01-12T05:27:07.136Z,5.80
2019-01-12T05:32:12.100Z,5.70
2019-01-12T05:37:17.075Z,5.70
2019-01-12T05:42:22.050Z,5.60
2019-01-12T05:47:27.061Z,5.50
2019-01-12T05:52:32.043Z,5.40
2019-01-12T05:57:37.320Z,5.30
2019-01-12T06:02:42.351Z,5.20
2019-01-12T06:07:47.332Z,5.20
2019-01-12T06:12:52.291Z,5.20
2019-01-12T06:17:57.263Z,5.10
2019-01-12T06:23:02.219Z,5.20
2019-01-12T06:28:07.193Z,5.30
2019-01-12T06:33:12.123Z,5.30
2019-01-12T06:38:17.084Z,5.40
2019-01-12T06:43:22.038Z,5.50
2019-01-12T06:48:27.006Z,5.50
2019-01-12T06:53:31.987Z,5.60
2019-01-12T06:58:36.951Z,5.60
2019-01-12T07:03:41.958Z,5.60
2019-01-12T07:08:46.943Z,5.60
2019-01-12T07:13:51.905Z,5.60
2019-01-12T07:18:56.870Z,5.60
2019-01-12T07:24:01.931Z,5.70
2019-01-12T07:29:06.894Z,5.70
2019-01-12T07:34:11.869Z,5.70
2019-01-12T07:39:16.869Z,5.70
2019-01-12T07:44:21.838Z,5.70
2019-01-12T07:49:27.146Z,5.70
2019-01-12T07:54:32.310Z,5.80
2019-01-12T07:59:37.275Z,5.70
2019-01-12T08:04:42.275Z,5.80
2019-01-12T08:09:47.256Z,5.80
2019-01-12T08:14:52.208Z,5.80
2019-01-12T08:19:57.233Z,5.80
2019-01-12T08:25:02.215Z,5.80
2019-01-12T08:30:13.459Z,5.90
2019-01-12T08:35:18.414Z,6.00
2019-01-12T08:40:23.383Z,6.10
2019-01-12T08:45:28.347Z,6.20
2019-01-12T08:50:33.321Z,6.20
2019-01-12T08:55:38.287Z,6.20
2019-01-12T09:00:43.246Z,6.30
2019-01-12T09:05:48.271Z,6.30
2019-01-12T09:10:53.223Z,6.30
2019-01-12T09:15:58.214Z,6.20
2019-01-12T09:21:03.170Z,6.30
2019-01-12T09:26:08.135Z,6.30
2019-01-12T09:31:13.100Z,6.30
2019-01-12T09:36:18.062Z,6.30
2019-01-12T09:41:23.041Z,6.30
2019-01-12T09:46:28.004Z,6.30
2019-01-12T09:51:32.975Z,6.20
2019-01-12T09:56:39.750Z,6.20
2019-01-12T10:01:44.720Z,6.20
2019-01-12T10:06:52.141Z,6.30
2019-01-12T10:11:57.329Z,6.30
2019-01-12T10:17:02.385Z,6.30
2019-01-12T10:22:07.399Z,6.40
2019-01-12T10:27:12.367Z,6.40
2019-01-12T10:32:17.330Z,6.40
2019-01-12T10:37:22.280Z,6.40
2019-01-12T10:42:27.290Z,6.50
2019-01-12T10:47:32.255Z,6.50
2019-01-12T10:52:37.224Z,6.60
2019-01-12T10:57:42.198Z,6.60
2019-01-12T11:02:48.736Z,6.70
2019-01-12T11:07:55.825Z,6.80
2019-01-12T11:13:00.788Z,6.80
2019-01-12T11:18:07.507Z,6.90
2019-01-12T11:23:12.655Z,6.90
2019-01-12T11:28:17.606Z,7.00
2019-01-12T11:33:22.575Z,7.10
2019-01-12T11:38:27.632Z,7.10
2019-01-12T11:43:32.579Z,7.20
2019-01-12T11:48:37.540Z,7.30
2019-01-12T11:53:42.513Z,7.30
2019-01-12T11:58:47.484Z,7.40
2019-01-12T12:03:52.450Z,7.40
2019-01-12T12:08:57.464Z,7.40
2019-01-12T12:14:02.428Z,7.40
2019-01-12T12:19:07.385Z,7.50
2019-01-12T12:24:12.358Z,7.50
2019-01-12T12:29:17.312Z,7.60
2019-01-12T12:34:22.270Z,7.60
2019-01-12T12:39:27.359Z,7.50
2019-01-12T12:44:32.311Z,7.50
2019-01-12T12:49:37.305Z,7.60
2019-01-12T12:54:42.273Z,7.80
2019-01-12T12:59:47.295Z,7.70
2019-01-12T13:04:52.256Z,7.60
2019-01-12T13:09:57.265Z,7.60
2019-01-12T13:15:02.277Z,7.60
2019-01-12T13:20:11.033Z,7.50
2019-01-12T13:25:18.226Z,7.50
2019-01-12T13:30:25.667Z,7.40
2019-01-12T13:35:30.662Z,7.40
2019-01-12T13:40:35.602Z,7.40
2019-01-12T13:45:40.580Z,7.30
2019-01-12T13:50:45.564Z,7.20
2019-01-12T13:55:50.531Z,7.20
2019-01-12T14:00:55.482Z,7.10
2019-01-12T14:06:00.505Z,7.10
2019-01-12T14:11:05.474Z,7.10
2019-01-12T14:16:10.657Z,7.00
2019-01-12T14:21:15.611Z,6.80
2019-01-12T14:26:21.648Z,6.90
2019-01-12T14:31:26.611Z,6.90
2019-01-12T14:36:31.594Z,6.80
2019-01-12T14:41:36.550Z,6.70
2019-01-12T14:46:41.794Z,6.60
2019-01-12T14:51:46.763Z,6.50
2019-01-12T14:56:51.894Z,6.50
2019-01-12T15:01:56.881Z,6.40
2019-01-12T15:07:01.906Z,6.50
2019-01-12T15:12:07.182Z,6.60
2019-01-12T15:17:12.578Z,6.70
2019-01-12T15:22:17.547Z,6.60
2019-01-12T15:27:25.888Z,6.60
2019-01-12T15:32:30.919Z,6.50
2019-01-12T15:37:35.982Z,6.40
2019-01-12T15:42:40.960Z,6.30
2019-01-12T15:47:46.151Z,6.30
2019-01-12T15:52:51.559Z,6.30
2019-01-12T15:57:56.516Z,6.30
2019-01-12T16:03:01.463Z,6.20
2019-01-12T16:08:06.447Z,6.10
2019-01-12T16:13:11.411Z,6.10
2019-01-12T16:18:16.386Z,6.20
2019-01-12T16:23:21.378Z,6.30
2019-01-12T16:28:26.327Z,6.40
2019-01-12T16:33:31.311Z,6.50
2019-01-12T16:38:36.278Z,6.50
2019-01-12T16:43:41.289Z,6.50
2019-01-12T16:48:46.258Z,6.50
2019-01-12T16:53:51.276Z,6.50
2019-01-12T16:58:58.137Z,6.50
2019-01-12T17:04:02.878Z,6.60
2019-01-12T17:09:09.433Z,6.60
2019-01-12T17:14:14.384Z,6.60
2019-01-12T17:19:19.352Z,6.70
2019-01-12T17:24:24.340Z,6.70
2019-01-12T17:29:29.347Z,6.70
2019-01-12T17:34:35.007Z,6.70
2019-01-12T17:39:39.995Z,6.60
2019-01-12T17:44:45.004Z,6.60
2019-01-12T17:49:49.983Z,6.50
2019-01-12T17:54:54.941Z,6.50
2019-01-12T17:59:59.914Z,6.50
2019-01-12T18:05:06.225Z,6.50
2019-01-12T18:10:12.762Z,6.50
2019-01-12T18:15:17.779Z,6.50
2019-01-12T18:20:22.731Z,6.50
2019-01-12T18:25:27.910Z,6.50
2019-01-12T18:30:32.859Z,6.50
2019-01-12T18:35:37.946Z,6.60
2019-01-12T18:40:42.906Z,6.60
2019-01-12T18:45:47.915Z,6.60
2019-01-12T18:50:52.883Z,6.60
2019-01-12T18:55:57.865Z,6.60
2019-01-12T19:01:02.827Z,6.60
2019-01-12T19:06:07.808Z,6.60
2019-01-12T19:11:12.783Z,6.50
2019-01-12T19:16:17.776Z,6.40
2019-01-12T19:21:22.765Z,6.30
2019-01-12T19:26:27.739Z,6.40
2019-01-12T19:31:32.715Z,6.50
2019-01-12T19:36:37.692Z,6.50
2019-01-12T19:41:42.655Z,6.60
2019-01-12T19:46:47.623Z,6.70
2019-01-12T19:51:52.591Z,6.80
2019-01-12T19:56:57.610Z,6.80
2019-01-12T20:02:02.579Z,6.80
2019-01-12T20:07:07.539Z,6.80
2019-01-12T20:12:12.544Z,6.90
2019-01-12T20:17:17.520Z,6.90
2019-01-12T20:22:22.487Z,7.00
2019-01-12T20:27:33.495Z,7.00
2019-01-12T20:33:27.507Z,7.00
2019-01-12T20:38:41.531Z,7.00
2019-01-12T20:44:22.235Z,7.00
2019-01-12T20:50:00.597Z,7.00
2019-01-12T20:56:11.099Z,7.00
2019-01-12T21:01:56.906Z,7.00
2019-01-12T21:07:44.844Z,7.00
2019-01-12T21:13:40.876Z,7.00
2019-01-12T21:18:45.851Z,6.90
2019-01-12T21:23:50.902Z,6.80
2019-01-12T21:28:55.920Z,6.70
2019-01-12T21:34:01.068Z,6.80
2019-01-12T21:39:08.305Z,6.80
2019-01-12T21:44:13.332Z,6.80
2019-01-12T21:49:18.510Z,6.80
2019-01-12T21:54:23.483Z,6.80
2019-01-12T21:59:31.708Z,6.90
2019-01-12T22:04:36.702Z,6.90
2019-01-12T22:09:41.675Z,6.90
2019-01-12T22:14:46.682Z,7.00
2019-01-12T22:19:51.651Z,7.00
2019-01-12T22:24:56.625Z,7.00
2019-01-12T22:30:01.593Z,6.90
2019-01-12T22:35:07.250Z,6.90
2019-01-12T22:40:15.683Z,7.00
2019-01-12T22:45:22.436Z,6.90
2019-01-12T22:50:27.477Z,6.90
2019-01-12T22:55:32.413Z,6.90
2019-01-12T23:01:06.970Z,7.00
2019-01-12T23:06:11.954Z,7.00
2019-01-12T23:11:16.980Z,7.10
2019-01-12T23:16:21.936Z,7.10
2019-01-12T23:21:26.921Z,7.10
2019-01-12T23:26:31.896Z,7.10
2019-01-12T23:31:37.005Z,7.10
2019-01-12T23:36:41.940Z,7.10
2019-01-12T23:41:46.927Z,7.20
2019-01-12T23:46:51.891Z,7.20
2019-01-12T23:51:56.874Z,7.20
2019-01-12T23:57:01.882Z,7.20
